Aviation Digital Data Service (ADDS)

Output produced by METARs form (1128 UTC 17 June 2019)
found at http://www.aviationweather.gov/metar/data/
 
METAR text: KSMF 171053Z 16005KT 10SM SCT250 14/12 A2975 RMK AO2 SLP073 T01440117
Conditions at: KSMF (SACRAMENTO/METRO, CA, US) observed 1053 UTC 17 June 2019
Temperature: 14.4°C (58°F)
Dewpoint: 11.7°C (53°F) [RH = 84%]
Pressure (altimeter): 29.75 inches Hg (1007.5 mb)
[Sea-level pressure: 1007.3 mb]
Winds: from the SSE (160 degrees) at 6 MPH (5 knots; 2.6 m/s)
Visibility: 10 or more miles (16+ km)
Ceiling: at least 12,000 feet AGL
Clouds: scattered clouds at 25000 feet AGL
Weather: no significant weather observed at this time

METAR text: KSMF 170953Z 15010KT 10SM FEW250 15/11 A2975 RMK AO2 SLP073 T01500111
Conditions at: KSMF (SACRAMENTO/METRO, CA, US) observed 0953 UTC 17 June 2019
Temperature: 15.0°C (59°F)
Dewpoint: 11.1°C (52°F) [RH = 77%]
Pressure (altimeter): 29.75 inches Hg (1007.5 mb)
[Sea-level pressure: 1007.3 mb]
Winds: from the SSE (150 degrees) at 12 MPH (10 knots; 5.1 m/s)
Visibility: 10 or more miles (16+ km)
Ceiling: at least 12,000 feet AGL
Clouds: few clouds at 25000 feet AGL
Weather: no significant weather observed at this time

METAR text: KSMF 170853Z 17007KT 10SM FEW250 16/12 A2975 RMK AO2 SLP072 T01560117 53003
Conditions at: KSMF (SACRAMENTO/METRO, CA, US) observed 0853 UTC 17 June 2019
Temperature: 15.6°C (60°F)
Dewpoint: 11.7°C (53°F) [RH = 78%]
Pressure (altimeter): 29.75 inches Hg (1007.5 mb)
[Sea-level pressure: 1007.2 mb]
Winds: from the S (170 degrees) at 8 MPH (7 knots; 3.6 m/s)
Visibility: 10 or more miles (16+ km)
Ceiling: at least 12,000 feet AGL
Clouds: few clouds at 25000 feet AGL
Weather: no significant weather observed at this time

METAR text: KSMF 170753Z 15009KT 10SM SCT250 17/12 A2974 RMK AO2 SLP069 T01670117 403110122
Conditions at: KSMF (SACRAMENTO/METRO, CA, US) observed 0753 UTC 17 June 2019
Temperature: 16.7°C (62°F)
Dewpoint: 11.7°C (53°F) [RH = 72%]
Pressure (altimeter): 29.74 inches Hg (1007.2 mb)
[Sea-level pressure: 1006.9 mb]
Winds: from the SSE (150 degrees) at 10 MPH (9 knots; 4.6 m/s)
Visibility: 10 or more miles (16+ km)
Ceiling: at least 12,000 feet AGL
Clouds: scattered clouds at 25000 feet AGL
Weather: no significant weather observed at this time

METAR text: KSMF 170653Z 16008KT 10SM SCT250 17/12 A2974 RMK AO2 SLP069 T01670117
Conditions at: KSMF (SACRAMENTO/METRO, CA, US) observed 0653 UTC 17 June 2019
Temperature: 16.7°C (62°F)
Dewpoint: 11.7°C (53°F) [RH = 72%]
Pressure (altimeter): 29.74 inches Hg (1007.2 mb)
[Sea-level pressure: 1006.9 mb]
Winds: from the SSE (160 degrees) at 9 MPH (8 knots; 4.1 m/s)
Visibility: 10 or more miles (16+ km)
Ceiling: at least 12,000 feet AGL
Clouds: scattered clouds at 25000 feet AGL
Weather: no significant weather observed at this time

METAR text: KSMF 170553Z 15011KT 10SM SCT250 18/12 A2974 RMK AO2 SLP069 T01830122 10311 20183 53009
Conditions at: KSMF (SACRAMENTO/METRO, CA, US) observed 0553 UTC 17 June 2019
Temperature: 18.3°C (65°F)
Dewpoint: 12.2°C (54°F) [RH = 68%]
Pressure (altimeter): 29.74 inches Hg (1007.2 mb)
[Sea-level pressure: 1006.9 mb]
Winds: from the SSE (150 degrees) at 13 MPH (11 knots; 5.7 m/s)
Visibility: 10 or more miles (16+ km)
Ceiling: at least 12,000 feet AGL
Clouds: scattered clouds at 25000 feet AGL
Weather: no significant weather observed at this time

METAR text: KSMF 170453Z 16009KT 10SM SCT250 19/13 A2973 RMK AO2 SLP066 T01940128
Conditions at: KSMF (SACRAMENTO/METRO, CA, US) observed 0453 UTC 17 June 2019
Temperature: 19.4°C (67°F)
Dewpoint: 12.8°C (55°F) [RH = 66%]
Pressure (altimeter): 29.73 inches Hg (1006.9 mb)
[Sea-level pressure: 1006.6 mb]
Winds: from the SSE (160 degrees) at 10 MPH (9 knots; 4.6 m/s)
Visibility: 10 or more miles (16+ km)
Ceiling: at least 12,000 feet AGL
Clouds: scattered clouds at 25000 feet AGL
Weather: no significant weather observed at this time

METAR text: KSMF 170353Z 17011KT 10SM SCT250 21/13 A2971 RMK AO2 SLP061 T02060133
Conditions at: KSMF (SACRAMENTO/METRO, CA, US) observed 0353 UTC 17 June 2019
Temperature: 20.6°C (69°F)
Dewpoint: 13.3°C (56°F) [RH = 63%]
Pressure (altimeter): 29.71 inches Hg (1006.2 mb)
[Sea-level pressure: 1006.1 mb]
Winds: from the S (170 degrees) at 13 MPH (11 knots; 5.7 m/s)
Visibility: 10 or more miles (16+ km)
Ceiling: at least 12,000 feet AGL
Clouds: scattered clouds at 25000 feet AGL
Weather: no significant weather observed at this time

METAR text: KSMF 170253Z 17013G19KT 10SM SCT250 24/15 A2971 RMK AO2 SLP059 T02390150 56005
Conditions at: KSMF (SACRAMENTO/METRO, CA, US) observed 0253 UTC 17 June 2019
Temperature: 23.9°C (75°F)
Dewpoint: 15.0°C (59°F) [RH = 57%]
Pressure (altimeter): 29.71 inches Hg (1006.2 mb)
[Sea-level pressure: 1005.9 mb]
Winds: from the S (170 degrees) at 15 MPH (13 knots; 6.7 m/s)
gusting to 22 MPH (19 knots; 9.8 m/s)
Visibility: 10 or more miles (16+ km)
Ceiling: at least 12,000 feet AGL
Clouds: scattered clouds at 25000 feet AGL
Weather: no significant weather observed at this time

METAR text: KSMF 170153Z 17013KT 10SM SCT200 27/14 A2971 RMK AO2 SLP060 T02670144
Conditions at: KSMF (SACRAMENTO/METRO, CA, US) observed 0153 UTC 17 June 2019
Temperature: 26.7°C (80°F)
Dewpoint: 14.4°C (58°F) [RH = 47%]
Pressure (altimeter): 29.71 inches Hg (1006.2 mb)
[Sea-level pressure: 1006.0 mb]
Winds: from the S (170 degrees) at 15 MPH (13 knots; 6.7 m/s)
Visibility: 10 or more miles (16+ km)
Ceiling: at least 12,000 feet AGL
Clouds: scattered clouds at 20000 feet AGL
Weather: no significant weather observed at this time

METAR text: KSMF 170053Z 17011KT 10SM FEW200 30/12 A2971 RMK AO2 SLP059 T03000117
Conditions at: KSMF (SACRAMENTO/METRO, CA, US) observed 0053 UTC 17 June 2019
Temperature: 30.0°C (86°F)
Dewpoint: 11.7°C (53°F) [RH = 32%]
Pressure (altimeter): 29.71 inches Hg (1006.2 mb)
[Sea-level pressure: 1005.9 mb]
Winds: from the S (170 degrees) at 13 MPH (11 knots; 5.7 m/s)
Visibility: 10 or more miles (16+ km)
Ceiling: at least 12,000 feet AGL
Clouds: few clouds at 20000 feet AGL
Weather: no significant weather observed at this time

METAR text: KSMF 162353Z 17008KT 10SM FEW200 30/14 A2972 RMK AO2 SLP064 T03000144 10311 20222 56020
Conditions at: KSMF (SACRAMENTO/METRO, CA, US) observed 2353 UTC 16 June 2019
Temperature: 30.0°C (86°F)
Dewpoint: 14.4°C (58°F) [RH = 39%]
Pressure (altimeter): 29.72 inches Hg (1006.5 mb)
[Sea-level pressure: 1006.4 mb]
Winds: from the S (170 degrees) at 9 MPH (8 knots; 4.1 m/s)
Visibility: 10 or more miles (16+ km)
Ceiling: at least 12,000 feet AGL
Clouds: few clouds at 20000 feet AGL
Weather: no significant weather observed at this time

METAR text: KSMF 162253Z 20010KT 10SM CLR 31/16 A2973 RMK AO2 SLP068 T03060156
Conditions at: KSMF (SACRAMENTO/METRO, CA, US) observed 2253 UTC 16 June 2019
Temperature: 30.6°C (87°F)
Dewpoint: 15.6°C (60°F) [RH = 40%]
Pressure (altimeter): 29.73 inches Hg (1006.9 mb)
[Sea-level pressure: 1006.8 mb]
Winds: from the SSW (200 degrees) at 12 MPH (10 knots; 5.1 m/s)
Visibility: 10 or more miles (16+ km)
Ceiling: at least 12,000 feet AGL
Clouds: sky clear below 12,000 feet AGL
Weather: no significant weather observed at this time

METAR text: KSMF 162153Z 18005KT 10SM CLR 29/16 A2975 RMK AO2 SLP075 T02940161
Conditions at: KSMF (SACRAMENTO/METRO, CA, US) observed 2153 UTC 16 June 2019
Temperature: 29.4°C (85°F)
Dewpoint: 16.1°C (61°F) [RH = 45%]
Pressure (altimeter): 29.75 inches Hg (1007.5 mb)
[Sea-level pressure: 1007.5 mb]
Winds: from the S (180 degrees) at 6 MPH (5 knots; 2.6 m/s)
Visibility: 10 or more miles (16+ km)
Ceiling: at least 12,000 feet AGL
Clouds: sky clear below 12,000 feet AGL
Weather: no significant weather observed at this time

METAR text: KSMF 162053Z VRB06KT 10SM CLR 28/16 A2978 RMK AO2 SLP084 T02830156 58019
Conditions at: KSMF (SACRAMENTO/METRO, CA, US) observed 2053 UTC 16 June 2019
Temperature: 28.3°C (83°F)
Dewpoint: 15.6°C (60°F) [RH = 46%]
Pressure (altimeter): 29.78 inches Hg (1008.5 mb)
[Sea-level pressure: 1008.4 mb]
Winds: variable direction winds at 7 MPH (6 knots; 3.1 m/s)
Visibility: 10 or more miles (16+ km)
Ceiling: at least 12,000 feet AGL
Clouds: sky clear below 12,000 feet AGL
Weather: no significant weather observed at this time

METAR text: KSMF 161953Z 16005KT 10SM CLR 27/15 A2980 RMK AO2 SLP092 T02670150
Conditions at: KSMF (SACRAMENTO/METRO, CA, US) observed 1953 UTC 16 June 2019
Temperature: 26.7°C (80°F)
Dewpoint: 15.0°C (59°F) [RH = 49%]
Pressure (altimeter): 29.80 inches Hg (1009.2 mb)
[Sea-level pressure: 1009.2 mb]
Winds: from the SSE (160 degrees) at 6 MPH (5 knots; 2.6 m/s)
Visibility: 10 or more miles (16+ km)
Ceiling: at least 12,000 feet AGL
Clouds: sky clear below 12,000 feet AGL
Weather: no significant weather observed at this time

METAR text: KSMF 161853Z VRB05KT 10SM CLR 25/15 A2982 RMK AO2 SLP099 T02500150
Conditions at: KSMF (SACRAMENTO/METRO, CA, US) observed 1853 UTC 16 June 2019
Temperature: 25.0°C (77°F)
Dewpoint: 15.0°C (59°F) [RH = 54%]
Pressure (altimeter): 29.82 inches Hg (1009.9 mb)
[Sea-level pressure: 1009.9 mb]
Winds: variable direction winds at 6 MPH (5 knots; 2.6 m/s)
Visibility: 10 or more miles (16+ km)
Ceiling: at least 12,000 feet AGL
Clouds: sky clear below 12,000 feet AGL
Weather: no significant weather observed at this time

METAR text: KSMF 161753Z 21004KT 10SM CLR 22/14 A2983 RMK AO2 SLP102 T02220144 10222 20122 58011
Conditions at: KSMF (SACRAMENTO/METRO, CA, US) observed 1753 UTC 16 June 2019
Temperature: 22.2°C (72°F)
Dewpoint: 14.4°C (58°F) [RH = 61%]
Pressure (altimeter): 29.83 inches Hg (1010.2 mb)
[Sea-level pressure: 1010.2 mb]
Winds: from the SSW (210 degrees) at 5 MPH (4 knots; 2.1 m/s)
Visibility: 10 or more miles (16+ km)
Ceiling: at least 12,000 feet AGL
Clouds: sky clear below 12,000 feet AGL
Weather: no significant weather observed at this time

METAR text: KSMF 161653Z VRB04KT 10SM CLR 19/13 A2985 RMK AO2 SLP108 T01890128
Conditions at: KSMF (SACRAMENTO/METRO, CA, US) observed 1653 UTC 16 June 2019
Temperature: 18.9°C (66°F)
Dewpoint: 12.8°C (55°F) [RH = 68%]
Pressure (altimeter): 29.85 inches Hg (1010.9 mb)
[Sea-level pressure: 1010.8 mb]
Winds: variable direction winds at 5 MPH (4 knots; 2.1 m/s)
Visibility: 10 or more miles (16+ km)
Ceiling: at least 12,000 feet AGL
Clouds: sky clear below 12,000 feet AGL
Weather: no significant weather observed at this time

METAR text: KSMF 161553Z 13006KT 10SM CLR 16/12 A2986 RMK AO2 SLP112 T01610122
Conditions at: KSMF (SACRAMENTO/METRO, CA, US) observed 1553 UTC 16 June 2019
Temperature: 16.1°C (61°F)
Dewpoint: 12.2°C (54°F) [RH = 78%]
Pressure (altimeter): 29.86 inches Hg (1011.3 mb)
[Sea-level pressure: 1011.2 mb]
Winds: from the SE (130 degrees) at 7 MPH (6 knots; 3.1 m/s)
Visibility: 10 or more miles (16+ km)
Ceiling: at least 12,000 feet AGL
Clouds: sky clear below 12,000 feet AGL
Weather: no significant weather observed at this time

METAR text: KSMF 161453Z 14005KT 10SM CLR 14/12 A2987 RMK AO2 SLP114 T01440117 51009
Conditions at: KSMF (SACRAMENTO/METRO, CA, US) observed 1453 UTC 16 June 2019
Temperature: 14.4°C (58°F)
Dewpoint: 11.7°C (53°F) [RH = 84%]
Pressure (altimeter): 29.87 inches Hg (1011.6 mb)
[Sea-level pressure: 1011.4 mb]
Winds: from the SE (140 degrees) at 6 MPH (5 knots; 2.6 m/s)
Visibility: 10 or more miles (16+ km)
Ceiling: at least 12,000 feet AGL
Clouds: sky clear below 12,000 feet AGL
Weather: no significant weather observed at this time

METAR text: KSMF 161353Z 15007KT 10SM FEW009 13/11 A2986 RMK AO2 SLP111 T01280111
Conditions at: KSMF (SACRAMENTO/METRO, CA, US) observed 1353 UTC 16 June 2019
Temperature: 12.8°C (55°F)
Dewpoint: 11.1°C (52°F) [RH = 89%]
Pressure (altimeter): 29.86 inches Hg (1011.3 mb)
[Sea-level pressure: 1011.1 mb]
Winds: from the SSE (150 degrees) at 8 MPH (7 knots; 3.6 m/s)
Visibility: 10 or more miles (16+ km)
Ceiling: at least 12,000 feet AGL
Clouds: few clouds at 900 feet AGL
Weather: no significant weather observed at this time

METAR text: KSMF 161253Z 16007KT 10SM CLR 12/11 A2985 RMK AO2 SLP108 T01220106
Conditions at: KSMF (SACRAMENTO/METRO, CA, US) observed 1253 UTC 16 June 2019
Temperature: 12.2°C (54°F)
Dewpoint: 10.6°C (51°F) [RH = 90%]
Pressure (altimeter): 29.85 inches Hg (1010.9 mb)
[Sea-level pressure: 1010.8 mb]
Winds: from the SSE (160 degrees) at 8 MPH (7 knots; 3.6 m/s)
Visibility: 10 or more miles (16+ km)
Ceiling: at least 12,000 feet AGL
Clouds: sky clear below 12,000 feet AGL
Weather: no significant weather observed at this time

METAR text: KSMF 161153Z 14009KT 10SM CLR 12/11 A2984 RMK AO2 SLP105 T01220106 10150 20122 53000
Conditions at: KSMF (SACRAMENTO/METRO, CA, US) observed 1153 UTC 16 June 2019
Temperature: 12.2°C (54°F)
Dewpoint: 10.6°C (51°F) [RH = 90%]
Pressure (altimeter): 29.84 inches Hg (1010.6 mb)
[Sea-level pressure: 1010.5 mb]
Winds: from the SE (140 degrees) at 10 MPH (9 knots; 4.6 m/s)
Visibility: 10 or more miles (16+ km)
Ceiling: at least 12,000 feet AGL
Clouds: sky clear below 12,000 feet AGL
Weather: no significant weather observed at this time

METAR text: KSMF 161053Z 15008KT 10SM CLR 12/11 A2984 RMK AO2 SLP103 T01220106
Conditions at: KSMF (SACRAMENTO/METRO, CA, US) observed 1053 UTC 16 June 2019
Temperature: 12.2°C (54°F)
Dewpoint: 10.6°C (51°F) [RH = 90%]
Pressure (altimeter): 29.84 inches Hg (1010.6 mb)
[Sea-level pressure: 1010.3 mb]
Winds: from the SSE (150 degrees) at 9 MPH (8 knots; 4.1 m/s)
Visibility: 10 or more miles (16+ km)
Ceiling: at least 12,000 feet AGL
Clouds: sky clear below 12,000 feet AGL
Weather: no significant weather observed at this time

METAR text: KSMF 160953Z 12006KT 10SM CLR 13/11 A2984 RMK AO2 SLP104 T01280106
Conditions at: KSMF (SACRAMENTO/METRO, CA, US) observed 0953 UTC 16 June 2019
Temperature: 12.8°C (55°F)
Dewpoint: 10.6°C (51°F) [RH = 86%]
Pressure (altimeter): 29.84 inches Hg (1010.6 mb)
[Sea-level pressure: 1010.4 mb]
Winds: from the ESE (120 degrees) at 7 MPH (6 knots; 3.1 m/s)
Visibility: 10 or more miles (16+ km)
Ceiling: at least 12,000 feet AGL
Clouds: sky clear below 12,000 feet AGL
Weather: no significant weather observed at this time

METAR text: KSMF 160853Z 15008KT 10SM CLR 13/11 A2984 RMK AO2 SLP104 T01280111 56005
Conditions at: KSMF (SACRAMENTO/METRO, CA, US) observed 0853 UTC 16 June 2019
Temperature: 12.8°C (55°F)
Dewpoint: 11.1°C (52°F) [RH = 89%]
Pressure (altimeter): 29.84 inches Hg (1010.6 mb)
[Sea-level pressure: 1010.4 mb]
Winds: from the SSE (150 degrees) at 9 MPH (8 knots; 4.1 m/s)
Visibility: 10 or more miles (16+ km)
Ceiling: at least 12,000 feet AGL
Clouds: sky clear below 12,000 feet AGL
Weather: no significant weather observed at this time

METAR text: KSMF 160753Z 16008KT 10SM CLR 13/11 A2984 RMK AO2 SLP104 T01330111 402670122
Conditions at: KSMF (SACRAMENTO/METRO, CA, US) observed 0753 UTC 16 June 2019
Temperature: 13.3°C (56°F)
Dewpoint: 11.1°C (52°F) [RH = 87%]
Pressure (altimeter): 29.84 inches Hg (1010.6 mb)
[Sea-level pressure: 1010.4 mb]
Winds: from the SSE (160 degrees) at 9 MPH (8 knots; 4.1 m/s)
Visibility: 10 or more miles (16+ km)
Ceiling: at least 12,000 feet AGL
Clouds: sky clear below 12,000 feet AGL
Weather: no significant weather observed at this time

METAR text: KSMF 160653Z 16011KT 10SM FEW250 14/11 A2985 RMK AO2 SLP106 T01390111
Conditions at: KSMF (SACRAMENTO/METRO, CA, US) observed 0653 UTC 16 June 2019
Temperature: 13.9°C (57°F)
Dewpoint: 11.1°C (52°F) [RH = 83%]
Pressure (altimeter): 29.85 inches Hg (1010.9 mb)
[Sea-level pressure: 1010.6 mb]
Winds: from the SSE (160 degrees) at 13 MPH (11 knots; 5.7 m/s)
Visibility: 10 or more miles (16+ km)
Ceiling: at least 12,000 feet AGL
Clouds: few clouds at 25000 feet AGL
Weather: no significant weather observed at this time

METAR text: KSMF 160553Z 16010KT 10SM FEW250 15/12 A2986 RMK AO2 SLP109 T01500117 10261 20150 51014
Conditions at: KSMF (SACRAMENTO/METRO, CA, US) observed 0553 UTC 16 June 2019
Temperature: 15.0°C (59°F)
Dewpoint: 11.7°C (53°F) [RH = 81%]
Pressure (altimeter): 29.86 inches Hg (1011.3 mb)
[Sea-level pressure: 1010.9 mb]
Winds: from the SSE (160 degrees) at 12 MPH (10 knots; 5.1 m/s)
Visibility: 10 or more miles (16+ km)
Ceiling: at least 12,000 feet AGL
Clouds: few clouds at 25000 feet AGL
Weather: no significant weather observed at this time

METAR text: KSMF 160453Z 16011KT 10SM CLR 16/12 A2985 RMK AO2 SLP106 T01560117
Conditions at: KSMF (SACRAMENTO/METRO, CA, US) observed 0453 UTC 16 June 2019
Temperature: 15.6°C (60°F)
Dewpoint: 11.7°C (53°F) [RH = 78%]
Pressure (altimeter): 29.85 inches Hg (1010.9 mb)
[Sea-level pressure: 1010.6 mb]
Winds: from the SSE (160 degrees) at 13 MPH (11 knots; 5.7 m/s)
Visibility: 10 or more miles (16+ km)
Ceiling: at least 12,000 feet AGL
Clouds: sky clear below 12,000 feet AGL
Weather: no significant weather observed at this time

METAR text: KSMF 160353Z 17011KT 10SM CLR 17/12 A2984 RMK AO2 SLP103 T01720122
Conditions at: KSMF (SACRAMENTO/METRO, CA, US) observed 0353 UTC 16 June 2019
Temperature: 17.2°C (63°F)
Dewpoint: 12.2°C (54°F) [RH = 72%]
Pressure (altimeter): 29.84 inches Hg (1010.6 mb)
[Sea-level pressure: 1010.3 mb]
Winds: from the S (170 degrees) at 13 MPH (11 knots; 5.7 m/s)
Visibility: 10 or more miles (16+ km)
Ceiling: at least 12,000 feet AGL
Clouds: sky clear below 12,000 feet AGL
Weather: no significant weather observed at this time

METAR text: KSMF 160253Z 17011KT 10SM CLR 21/13 A2982 RMK AO2 SLP096 T02060133 55003
Conditions at: KSMF (SACRAMENTO/METRO, CA, US) observed 0253 UTC 16 June 2019
Temperature: 20.6°C (69°F)
Dewpoint: 13.3°C (56°F) [RH = 63%]
Pressure (altimeter): 29.82 inches Hg (1009.9 mb)
[Sea-level pressure: 1009.6 mb]
Winds: from the S (170 degrees) at 13 MPH (11 knots; 5.7 m/s)
Visibility: 10 or more miles (16+ km)
Ceiling: at least 12,000 feet AGL
Clouds: sky clear below 12,000 feet AGL
Weather: no significant weather observed at this time

METAR text: KSMF 160153Z 18013KT 10SM BKN250 23/14 A2981 RMK AO2 SLP095 T02330139
Conditions at: KSMF (SACRAMENTO/METRO, CA, US) observed 0153 UTC 16 June 2019
Temperature: 23.3°C (74°F)
Dewpoint: 13.9°C (57°F) [RH = 56%]
Pressure (altimeter): 29.81 inches Hg (1009.6 mb)
[Sea-level pressure: 1009.5 mb]
Winds: from the S (180 degrees) at 15 MPH (13 knots; 6.7 m/s)
Visibility: 10 or more miles (16+ km)
Ceiling: 25000 feet AGL
Clouds: broken clouds at 25000 feet AGL
Weather: no significant weather observed at this time

METAR text: KSMF 160053Z 18013KT 10SM BKN250 24/14 A2981 RMK AO2 SLP095 T02440144
Conditions at: KSMF (SACRAMENTO/METRO, CA, US) observed 0053 UTC 16 June 2019
Temperature: 24.4°C (76°F)
Dewpoint: 14.4°C (58°F) [RH = 54%]
Pressure (altimeter): 29.81 inches Hg (1009.6 mb)
[Sea-level pressure: 1009.5 mb]
Winds: from the S (180 degrees) at 15 MPH (13 knots; 6.7 m/s)
Visibility: 10 or more miles (16+ km)
Ceiling: 25000 feet AGL
Clouds: broken clouds at 25000 feet AGL
Weather: no significant weather observed at this time

METAR text: KSMF 152353Z 18013KT 10SM BKN250 26/14 A2982 RMK AO2 SLP098 T02610139 10267 20206 58019
Conditions at: KSMF (SACRAMENTO/METRO, CA, US) observed 2353 UTC 15 June 2019
Temperature: 26.1°C (79°F)
Dewpoint: 13.9°C (57°F) [RH = 47%]
Pressure (altimeter): 29.82 inches Hg (1009.9 mb)
[Sea-level pressure: 1009.8 mb]
Winds: from the S (180 degrees) at 15 MPH (13 knots; 6.7 m/s)
Visibility: 10 or more miles (16+ km)
Ceiling: 25000 feet AGL
Clouds: broken clouds at 25000 feet AGL
Weather: no significant weather observed at this time

Forecast for: KSMF (SACRAMENTO/METRO, CA, US)
Text: KSMF 171126Z 1712/1812 15006KT P6SM SCT250
Forecast period: 1200 to 1900 UTC 17 June 2019
Forecast type: FROM: standard forecast or significant change
Winds: from the SSE (150 degrees) at 7 MPH (6 knots; 3.1 m/s)
Visibility: 6 or more miles 10+ km)
Ceiling: at least 12,000 feet AGL
Clouds: scattered clouds at 25000 feet AGL
Weather: no significant weather forecast for this period
Text: FM171900 22006KT P6SM SCT250
Forecast period: 1900 UTC 17 June 2019 to 0000 UTC 18 June 2019
Forecast type: FROM: standard forecast or significant change
Winds: from the SW (220 degrees) at 7 MPH (6 knots; 3.1 m/s)
Visibility: 6 or more miles 10+ km)
Ceiling: at least 12,000 feet AGL
Clouds: scattered clouds at 25000 feet AGL
Weather: no significant weather forecast for this period
Text: FM180000 17010KT P6SM FEW250
Forecast period: 0000 to 1200 UTC 18 June 2019
Forecast type: FROM: standard forecast or significant change
Winds: from the S (170 degrees) at 12 MPH (10 knots; 5.1 m/s)
Visibility: 6 or more miles 10+ km)
Ceiling: at least 12,000 feet AGL
Clouds: few clouds at 25000 feet AGL
Weather: no significant weather forecast for this period